createdAt,value
2019-02-04T00:03:19.878Z,83.59
2019-02-04T00:08:21.613Z,83.45
2019-02-04T00:13:23.050Z,83.14
2019-02-04T00:18:24.594Z,83.19
2019-02-04T00:23:26.026Z,83.35
2019-02-04T00:28:28.557Z,83.87
2019-02-04T00:33:30.033Z,83.96
2019-02-04T00:38:31.661Z,83.79
2019-02-04T00:43:33.099Z,83.87
2019-02-04T00:48:34.581Z,84.06
2019-02-04T00:53:37.229Z,83.93
2019-02-04T00:58:38.649Z,84.04
2019-02-04T01:03:40.627Z,84.48
2019-02-04T01:08:42.097Z,84.27
2019-02-04T01:13:43.522Z,84.17
2019-02-04T01:18:44.963Z,84.13
2019-02-04T01:23:46.390Z,83.92
2019-02-04T01:28:48.828Z,83.68
2019-02-04T01:33:50.305Z,83.36
2019-02-04T01:38:51.744Z,83.12
2019-02-04T01:43:53.174Z,83.16
2019-02-04T01:48:54.645Z,83.10
2019-02-04T01:53:56.082Z,83.00
2019-02-04T01:58:57.563Z,82.74
2019-02-04T02:03:59.000Z,83.03
2019-02-04T02:09:00.473Z,82.93
2019-02-04T02:14:01.994Z,82.93
2019-02-04T02:19:03.590Z,82.76
2019-02-04T02:24:05.146Z,82.98
2019-02-04T02:29:06.677Z,83.08
2019-02-04T02:34:08.112Z,83.10
2019-02-04T02:39:09.611Z,82.97
2019-02-04T02:44:11.237Z,82.94
2019-02-04T02:49:12.678Z,83.20
2019-02-04T02:54:15.514Z,83.02
2019-02-04T02:59:17.365Z,82.98
2019-02-04T03:04:18.818Z,82.75
2019-02-04T03:09:20.255Z,82.59
2019-02-04T03:14:21.709Z,82.49
2019-02-04T03:19:23.216Z,82.04
2019-02-04T03:24:24.692Z,81.98
2019-02-04T03:29:26.148Z,82.06
2019-02-04T03:34:27.679Z,82.20
2019-02-04T03:39:29.106Z,82.05
2019-02-04T03:44:30.537Z,81.87
2019-02-04T03:49:32.013Z,82.00
2019-02-04T03:54:39.470Z,82.21
2019-02-04T03:59:40.906Z,82.37
2019-02-04T04:04:42.336Z,82.62
2019-02-04T04:09:43.767Z,82.66
2019-02-04T04:14:45.241Z,82.01
2019-02-04T04:19:46.713Z,81.93
2019-02-04T04:24:48.151Z,81.71
2019-02-04T04:29:49.590Z,81.59
2019-02-04T04:34:51.039Z,81.84
2019-02-04T04:39:52.472Z,82.58
2019-02-04T04:44:53.946Z,82.72
2019-02-04T04:49:55.375Z,83.21
2019-02-04T04:54:57.113Z,82.93
2019-02-04T04:59:58.677Z,82.80
2019-02-04T05:05:00.317Z,82.67
2019-02-04T05:10:03.240Z,82.55
2019-02-04T05:15:09.575Z,82.68
2019-02-04T05:20:14.911Z,82.31
2019-02-04T05:25:16.854Z,82.27
2019-02-04T05:30:21.467Z,82.31
2019-02-04T05:35:23.088Z,82.18
2019-02-04T05:40:24.620Z,82.08
2019-02-04T05:45:26.056Z,81.53
2019-02-04T05:50:27.514Z,81.19
2019-02-04T05:55:30.605Z,80.13
2019-02-04T06:00:34.338Z,80.68
2019-02-04T06:05:35.762Z,80.64
2019-02-04T06:10:37.397Z,80.86
2019-02-04T06:15:38.934Z,80.50
2019-02-04T06:20:40.753Z,80.30
2019-02-04T06:25:42.373Z,80.08
2019-02-04T06:30:43.807Z,79.82
2019-02-04T06:35:45.689Z,80.00
2019-02-04T06:40:47.225Z,79.97
2019-02-04T06:45:48.712Z,79.92
2019-02-04T06:50:51.062Z,80.13
2019-02-04T06:55:52.727Z,80.22
2019-02-04T07:00:54.268Z,80.28
2019-02-04T07:05:55.760Z,80.31
2019-02-04T07:10:57.394Z,80.28
2019-02-04T07:15:58.827Z,80.09
2019-02-04T07:21:00.298Z,80.05
2019-02-04T07:26:01.736Z,79.94
2019-02-04T07:31:03.460Z,80.04
2019-02-04T07:36:05.139Z,79.99
2019-02-04T07:41:06.742Z,80.31
2019-02-04T07:46:08.372Z,80.14
2019-02-04T07:51:09.904Z,79.35
2019-02-04T07:56:11.329Z,79.02
2019-02-04T08:01:12.863Z,78.46
2019-02-04T08:06:14.349Z,78.29
2019-02-04T08:11:16.127Z,78.42
2019-02-04T08:16:19.087Z,78.58
2019-02-04T08:21:20.947Z,78.88
2019-02-04T08:26:22.693Z,78.54
2019-02-04T08:31:24.406Z,78.71
2019-02-04T08:36:27.474Z,78.71
2019-02-04T08:41:29.185Z,78.55
2019-02-04T08:46:31.880Z,78.39
2019-02-04T08:51:33.741Z,78.47
2019-02-04T08:56:35.625Z,77.84
2019-02-04T09:01:37.536Z,77.96
2019-02-04T09:06:39.049Z,77.71
2019-02-04T09:11:41.105Z,77.99
2019-02-04T09:16:44.122Z,78.09
2019-02-04T09:21:45.816Z,78.04
2019-02-04T09:26:47.256Z,78.03
2019-02-04T09:31:48.721Z,78.21
2019-02-04T09:36:50.142Z,77.82
2019-02-04T09:41:52.013Z,77.67
2019-02-04T09:46:53.454Z,77.82
2019-02-04T09:51:54.890Z,77.99
2019-02-04T09:56:56.460Z,78.09
2019-02-04T10:01:58.095Z,78.30
2019-02-04T10:06:59.533Z,78.56
2019-02-04T10:12:01.000Z,78.72
2019-02-04T10:17:02.526Z,77.14
2019-02-04T10:22:04.460Z,76.25
2019-02-04T10:27:06.081Z,75.49
2019-02-04T10:32:07.819Z,74.00
2019-02-04T10:37:09.253Z,73.31
2019-02-04T10:42:10.806Z,73.02
2019-02-04T10:47:12.758Z,72.74
2019-02-04T10:52:14.342Z,71.86
2019-02-04T10:57:15.969Z,71.57
2019-02-04T11:02:17.480Z,71.16
2019-02-04T11:07:19.092Z,71.29
2019-02-04T11:12:20.805Z,71.36
2019-02-04T11:17:22.439Z,71.79
2019-02-04T11:22:23.907Z,71.58
2019-02-04T11:27:25.729Z,72.45
2019-02-04T11:32:27.270Z,72.95
2019-02-04T11:37:28.731Z,73.71
2019-02-04T11:42:30.319Z,73.65
2019-02-04T11:47:32.125Z,73.75
2019-02-04T11:52:35.177Z,74.10
2019-02-04T11:57:37.135Z,74.94
2019-02-04T12:02:39.072Z,75.86
2019-02-04T12:07:40.730Z,76.06
2019-02-04T12:12:42.397Z,76.72
2019-02-04T12:17:44.145Z,77.34
2019-02-04T12:22:47.681Z,77.55
2019-02-04T12:27:49.475Z,78.60
2019-02-04T12:32:51.105Z,77.43
2019-02-04T12:37:52.601Z,77.35
2019-02-04T12:42:54.549Z,77.58
2019-02-04T12:47:56.210Z,77.97
2019-02-04T12:52:57.891Z,77.65
2019-02-04T12:58:00.177Z,77.82
2019-02-04T13:03:02.389Z,77.59
2019-02-04T13:08:06.817Z,77.42
2019-02-04T13:13:12.684Z,77.21
2019-02-04T13:18:14.438Z,77.65
2019-02-04T13:23:16.634Z,77.90
2019-02-04T13:28:18.298Z,77.82
2019-02-04T13:33:20.500Z,77.61
2019-02-04T13:38:22.046Z,77.73
2019-02-04T13:43:23.671Z,77.15
2019-02-04T13:48:25.623Z,76.81
2019-02-04T13:53:27.284Z,76.66
2019-02-04T13:58:29.064Z,76.87
2019-02-04T14:03:30.647Z,76.87
2019-02-04T14:08:32.206Z,77.07
2019-02-04T14:13:33.816Z,77.15
2019-02-04T14:18:35.436Z,77.02
2019-02-04T14:23:37.016Z,77.03
2019-02-04T14:28:38.623Z,77.12
2019-02-04T14:33:40.080Z,77.22
2019-02-04T14:38:41.742Z,77.20
2019-02-04T14:43:43.896Z,77.02
2019-02-04T14:48:56.867Z,77.03
2019-02-04T14:54:38.084Z,76.92
2019-02-04T14:59:40.604Z,76.83
2019-02-04T15:04:56.443Z,77.00
2019-02-04T15:10:23.481Z,76.96
2019-02-04T15:16:11.831Z,76.92
2019-02-04T15:21:38.946Z,76.87
2019-02-04T15:26:55.238Z,76.91
2019-02-04T15:32:23.882Z,77.12
2019-02-04T15:37:36.529Z,77.26
2019-02-04T15:43:08.022Z,77.19
2019-02-04T15:48:12.677Z,76.66
2019-02-04T15:53:14.177Z,76.97
2019-02-04T15:58:15.665Z,77.30
2019-02-04T16:03:17.712Z,77.84
2019-02-04T16:08:19.330Z,77.97
2019-02-04T16:13:20.942Z,77.82
2019-02-04T16:18:22.600Z,77.79
2019-02-04T16:23:24.140Z,77.66
2019-02-04T16:28:25.607Z,77.88
2019-02-04T16:33:27.518Z,77.65
2019-02-04T16:38:29.116Z,77.40
2019-02-04T16:43:31.158Z,77.37
2019-02-04T16:48:32.789Z,77.53
2019-02-04T16:53:34.226Z,77.80
2019-02-04T16:58:35.702Z,77.75
2019-02-04T17:03:38.179Z,78.01
2019-02-04T17:08:39.732Z,77.76
2019-02-04T17:13:41.233Z,77.87
2019-02-04T17:18:43.072Z,77.84
2019-02-04T17:23:45.369Z,77.63
2019-02-04T17:28:47.006Z,77.65
2019-02-04T17:33:48.548Z,77.64
2019-02-04T17:38:50.172Z,77.39
2019-02-04T17:43:51.710Z,77.55
2019-02-04T17:48:53.175Z,77.56
2019-02-04T17:53:54.685Z,77.35
2019-02-04T17:58:56.250Z,77.36
2019-02-04T18:03:57.741Z,77.38
2019-02-04T18:08:59.191Z,77.11
2019-02-04T18:14:00.664Z,77.25
2019-02-04T18:19:02.818Z,77.35
2019-02-04T18:24:04.526Z,77.56
2019-02-04T18:29:06.156Z,77.18
2019-02-04T18:34:08.246Z,77.31
2019-02-04T18:39:10.038Z,77.08
2019-02-04T18:44:11.802Z,76.84
2019-02-04T18:49:13.737Z,76.91
2019-02-04T18:54:15.644Z,77.27
2019-02-04T18:59:17.216Z,77.16
2019-02-04T19:04:18.912Z,77.04
2019-02-04T19:09:21.866Z,76.98
2019-02-04T19:14:23.782Z,76.76
2019-02-04T19:19:25.733Z,76.72
2019-02-04T19:24:27.196Z,76.83
2019-02-04T19:29:28.782Z,76.97
2019-02-04T19:34:30.323Z,76.95
2019-02-04T19:39:32.100Z,77.04
2019-02-04T19:44:33.569Z,76.55
2019-02-04T19:49:35.146Z,76.55
2019-02-04T19:54:36.851Z,76.69
2019-02-04T19:59:38.740Z,76.68
2019-02-04T20:04:40.523Z,76.49
2019-02-04T20:09:42.262Z,76.66
2019-02-04T20:14:43.807Z,76.42
2019-02-04T20:19:45.277Z,76.65
2019-02-04T20:24:46.798Z,75.25
2019-02-04T20:29:48.257Z,75.13
2019-02-04T20:34:49.811Z,75.23
2019-02-04T20:39:51.686Z,75.15
2019-02-04T20:44:53.267Z,75.02
2019-02-04T20:49:54.808Z,74.88
2019-02-04T20:54:56.355Z,74.51
2019-02-04T20:59:57.856Z,74.15
2019-02-04T21:04:59.475Z,74.30
2019-02-04T21:10:01.178Z,74.37
2019-02-04T21:15:09.809Z,74.43
2019-02-04T21:20:23.550Z,74.75
2019-02-04T21:25:25.443Z,74.93
2019-02-04T21:30:35.588Z,75.53
2019-02-04T21:35:37.695Z,75.73
2019-02-04T21:40:39.538Z,75.92
2019-02-04T21:45:41.236Z,75.74
2019-02-04T21:50:42.803Z,75.48
2019-02-04T21:55:44.281Z,75.05
2019-02-04T22:00:45.896Z,75.44
2019-02-04T22:05:47.479Z,75.48
2019-02-04T22:10:49.108Z,75.41
2019-02-04T22:15:50.791Z,75.41
2019-02-04T22:20:52.341Z,76.02
2019-02-04T22:25:53.873Z,76.09
2019-02-04T22:30:55.416Z,76.39
2019-02-04T22:35:56.840Z,76.52
2019-02-04T22:40:58.294Z,76.80
2019-02-04T22:45:59.764Z,77.03
2019-02-04T22:51:01.212Z,77.20
2019-02-04T22:56:03.739Z,77.04
2019-02-04T23:01:17.009Z,76.97
2019-02-04T23:06:18.702Z,77.17
2019-02-04T23:11:20.437Z,77.43
2019-02-04T23:16:21.953Z,77.02
2019-02-04T23:21:23.699Z,77.09
2019-02-04T23:26:27.106Z,76.91
2019-02-04T23:31:28.593Z,76.71
2019-02-04T23:36:30.317Z,76.55
2019-02-04T23:41:31.792Z,76.38
2019-02-04T23:46:33.357Z,76.51
2019-02-04T23:51:34.994Z,76.73
2019-02-04T23:56:36.439Z,76.63
